createdAt,value
2022-11-13T00:01:29.356Z,99.90
2022-11-13T00:04:00.708Z,99.90
2022-11-13T00:06:29.811Z,99.90
2022-11-13T00:08:58.928Z,99.90
2022-11-13T00:11:28.012Z,99.90
2022-11-13T00:13:57.119Z,99.90
2022-11-13T00:16:26.188Z,99.90
2022-11-13T00:18:55.835Z,99.90
2022-11-13T00:21:30.294Z,99.90
2022-11-13T00:23:59.445Z,99.90
2022-11-13T00:26:32.202Z,99.90
2022-11-13T00:29:03.904Z,99.90
2022-11-13T00:31:33.142Z,99.90
2022-11-13T00:36:52.177Z,99.90
2022-11-13T00:39:21.828Z,99.90
2022-11-13T00:41:50.977Z,99.90
2022-11-13T00:44:20.358Z,99.90
2022-11-13T00:46:49.721Z,99.90
2022-11-13T00:49:18.865Z,99.90
2022-11-13T00:51:48.125Z,99.90
2022-11-13T00:54:17.286Z,99.90
2022-11-13T00:56:46.379Z,99.90
2022-11-13T00:59:15.448Z,99.90
2022-11-13T01:01:44.671Z,99.90
2022-11-13T01:04:13.865Z,99.90
2022-11-13T01:06:43.076Z,99.90
2022-11-13T01:09:12.284Z,99.90
2022-11-13T01:11:42.535Z,99.90
2022-11-13T01:14:11.856Z,99.90
2022-11-13T01:16:41.013Z,99.90
2022-11-13T01:19:10.262Z,99.90
2022-11-13T01:21:39.505Z,99.90
2022-11-13T01:24:08.773Z,99.90
2022-11-13T01:26:37.899Z,99.90
2022-11-13T01:29:11.448Z,99.90
2022-11-13T01:31:40.915Z,99.90
2022-11-13T01:34:10.391Z,99.90
2022-11-13T01:36:39.849Z,99.90
2022-11-13T01:39:11.758Z,99.90
2022-11-13T01:41:41.872Z,99.90
2022-11-13T01:44:17.076Z,99.70
2022-11-13T01:46:58.203Z,99.60
2022-11-13T01:49:39.224Z,99.30
2022-11-13T01:52:40.508Z,99.50
2022-11-13T01:55:20.574Z,99.60
2022-11-13T01:57:49.915Z,99.20
2022-11-13T02:00:19.281Z,99.40
2022-11-13T02:02:48.417Z,99.40
2022-11-13T02:05:17.776Z,99.40
2022-11-13T02:07:47.662Z,99.40
2022-11-13T02:10:17.131Z,99.50
2022-11-13T02:12:52.466Z,99.60
2022-11-13T02:15:26.642Z,99.50
2022-11-13T02:18:02.301Z,99.20
2022-11-13T02:21:01.573Z,99.30
2022-11-13T02:24:04.696Z,99.10
2022-11-13T02:26:35.114Z,99.20
2022-11-13T02:29:04.220Z,99.00
2022-11-13T02:31:33.393Z,99.10
2022-11-13T02:34:04.929Z,98.90
2022-11-13T02:36:35.810Z,99.10
2022-11-13T02:39:11.307Z,99.10
2022-11-13T02:41:40.576Z,98.90
2022-11-13T02:44:10.166Z,98.80
2022-11-13T02:46:39.553Z,98.50
2022-11-13T02:49:08.816Z,98.40
2022-11-13T02:51:37.985Z,98.30
2022-11-13T02:54:07.407Z,98.00
2022-11-13T02:56:36.587Z,98.00
2022-11-13T02:59:05.865Z,97.70
2022-11-13T03:01:35.108Z,97.70
2022-11-13T03:04:04.971Z,97.80
2022-11-13T03:06:34.900Z,97.80
2022-11-13T03:09:04.175Z,97.80
2022-11-13T03:11:33.275Z,97.30
2022-11-13T03:14:02.830Z,97.00
2022-11-13T03:16:32.023Z,96.10
2022-11-13T03:19:01.131Z,96.20
2022-11-13T03:21:30.326Z,95.80
2022-11-13T03:24:00.173Z,96.10
2022-11-13T03:26:29.383Z,95.60
2022-11-13T03:28:58.965Z,95.70
2022-11-13T03:31:28.169Z,95.50
2022-11-13T03:33:57.503Z,95.50
2022-11-13T03:36:27.584Z,95.30
2022-11-13T03:38:56.876Z,95.20
2022-11-13T03:41:26.039Z,95.10
2022-11-13T03:43:55.128Z,94.90
2022-11-13T03:46:24.455Z,94.80
2022-11-13T03:48:55.915Z,94.20
2022-11-13T03:51:25.081Z,94.30
2022-11-13T03:53:54.127Z,94.40
2022-11-13T03:56:23.992Z,94.00
2022-11-13T03:58:53.054Z,94.10
2022-11-13T04:01:22.130Z,94.10
2022-11-13T04:03:51.310Z,94.20
2022-11-13T04:06:20.538Z,93.90
2022-11-13T04:08:49.706Z,94.10
2022-11-13T04:11:18.905Z,93.70
2022-11-13T04:13:47.946Z,93.80
2022-11-13T04:16:17.086Z,93.80
2022-11-13T04:18:46.208Z,93.70
2022-11-13T04:21:15.277Z,93.50
2022-11-13T04:23:44.402Z,93.20
2022-11-13T04:26:13.438Z,92.90
2022-11-13T04:28:42.485Z,92.80
2022-11-13T04:31:11.603Z,92.90
2022-11-13T04:33:40.649Z,93.00
2022-11-13T04:36:10.329Z,92.80
2022-11-13T04:38:39.458Z,92.80
2022-11-13T04:41:27.479Z,92.70
2022-11-13T04:43:56.589Z,93.10
2022-11-13T04:46:25.670Z,93.20
2022-11-13T04:48:54.832Z,93.50
2022-11-13T04:51:24.064Z,93.30
2022-11-13T04:53:53.235Z,93.50
2022-11-13T04:56:24.460Z,92.70
2022-11-13T04:58:54.356Z,92.30
2022-11-13T05:01:23.634Z,92.30
2022-11-13T05:03:52.789Z,92.00
2022-11-13T05:06:23.302Z,92.10
2022-11-13T05:08:53.355Z,91.50
2022-11-13T05:11:22.414Z,91.60
2022-11-13T05:13:51.504Z,91.80
2022-11-13T05:16:20.665Z,91.70
2022-11-13T05:18:50.025Z,91.70
2022-11-13T05:21:19.288Z,91.80
2022-11-13T05:23:48.371Z,92.00
2022-11-13T05:26:18.212Z,92.20
2022-11-13T05:28:47.279Z,92.00
2022-11-13T05:31:17.823Z,92.50
2022-11-13T05:33:46.988Z,92.20
2022-11-13T05:36:19.303Z,92.10
2022-11-13T05:38:48.965Z,92.30
2022-11-13T05:41:22.360Z,92.60
2022-11-13T05:43:56.549Z,92.30
2022-11-13T05:46:30.739Z,91.70
2022-11-13T05:49:02.857Z,91.90
2022-11-13T05:51:36.329Z,91.90
2022-11-13T05:54:07.214Z,92.00
2022-11-13T05:56:38.749Z,91.90
2022-11-13T05:59:08.578Z,92.00
2022-11-13T06:01:42.568Z,92.00
2022-11-13T06:04:12.509Z,92.10
2022-11-13T06:06:41.779Z,91.80
2022-11-13T06:09:15.573Z,91.60
2022-11-13T06:11:45.121Z,91.80
2022-11-13T06:14:14.304Z,91.30
2022-11-13T06:16:43.580Z,91.30
2022-11-13T06:19:13.260Z,91.30
2022-11-13T06:21:43.878Z,91.20
2022-11-13T06:24:14.782Z,91.30
2022-11-13T06:26:44.154Z,91.40
2022-11-13T06:29:14.621Z,91.20
2022-11-13T06:31:44.064Z,91.10
2022-11-13T06:34:13.231Z,91.10
2022-11-13T06:36:43.673Z,91.40
2022-11-13T06:39:14.664Z,90.80
2022-11-13T06:41:43.869Z,90.70
2022-11-13T06:44:13.052Z,90.20
2022-11-13T06:46:42.184Z,90.40
2022-11-13T06:49:11.331Z,90.60
2022-11-13T06:51:40.578Z,90.30
2022-11-13T06:54:09.791Z,90.10
2022-11-13T06:56:44.737Z,89.80
2022-11-13T06:59:14.166Z,89.90
2022-11-13T07:01:43.289Z,89.90
2022-11-13T07:04:15.149Z,89.20
2022-11-13T07:06:44.592Z,89.60
2022-11-13T07:09:13.889Z,90.00
2022-11-13T07:11:43.018Z,90.50
2022-11-13T07:14:14.037Z,88.80
2022-11-13T07:17:08.019Z,88.70
2022-11-13T07:19:34.055Z,88.90
2022-11-13T07:22:03.253Z,87.90
2022-11-13T07:24:32.363Z,88.70
2022-11-13T07:27:01.476Z,89.10
2022-11-13T07:29:30.640Z,89.00
2022-11-13T07:31:59.734Z,88.60
2022-11-13T07:34:28.986Z,88.90
2022-11-13T07:36:58.182Z,88.70
2022-11-13T07:39:27.291Z,88.40
2022-11-13T07:41:56.447Z,88.30
2022-11-13T07:44:52.812Z,88.50
2022-11-13T07:47:14.798Z,89.10
2022-11-13T07:49:44.056Z,89.20
2022-11-13T07:52:13.256Z,89.00
2022-11-13T07:54:42.606Z,88.90
2022-11-13T07:57:11.802Z,88.90
2022-11-13T07:59:41.159Z,88.70
2022-11-13T08:02:19.296Z,88.70
2022-11-13T08:04:50.342Z,88.30
2022-11-13T08:07:19.692Z,89.00
2022-11-13T08:09:48.890Z,87.90
2022-11-13T08:12:18.092Z,87.70
2022-11-13T08:14:47.225Z,87.60
2022-11-13T08:17:16.690Z,87.70
2022-11-13T08:19:45.880Z,87.20
2022-11-13T08:22:15.026Z,87.30
2022-11-13T08:24:44.174Z,87.20
2022-11-13T08:27:13.395Z,87.40
2022-11-13T08:29:42.507Z,86.60
2022-11-13T08:32:11.607Z,87.10
2022-11-13T08:34:40.836Z,86.70
2022-11-13T08:37:11.549Z,86.70
2022-11-13T08:39:40.719Z,87.20
2022-11-13T08:42:09.924Z,87.40
2022-11-13T08:44:39.007Z,87.50
2022-11-13T08:47:08.209Z,87.60
2022-11-13T08:49:37.294Z,86.50
2022-11-13T08:52:06.651Z,87.80
2022-11-13T08:54:35.711Z,88.00
2022-11-13T08:57:06.067Z,87.60
2022-11-13T08:59:35.355Z,88.00
2022-11-13T09:02:04.657Z,88.30
2022-11-13T09:04:36.653Z,88.10
2022-11-13T09:07:05.942Z,88.50
2022-11-13T09:09:35.549Z,88.40
2022-11-13T09:12:05.028Z,88.80
2022-11-13T09:14:34.192Z,89.00
2022-11-13T09:17:03.328Z,89.20
2022-11-13T09:19:32.422Z,89.60
2022-11-13T09:22:01.564Z,89.80
2022-11-13T09:24:30.733Z,90.00
2022-11-13T09:26:59.848Z,90.00
2022-11-13T09:29:29.638Z,90.20
2022-11-13T09:31:58.969Z,90.10
2022-11-13T09:34:28.971Z,90.20
2022-11-13T09:37:00.026Z,90.30
2022-11-13T09:39:29.591Z,90.60
2022-11-13T09:42:19.302Z,90.60
2022-11-13T09:45:20.660Z,91.00
2022-11-13T09:47:53.726Z,91.10
2022-11-13T09:50:30.428Z,91.40
2022-11-13T09:52:59.873Z,91.50
2022-11-13T09:55:43.014Z,91.30
2022-11-13T09:58:53.229Z,91.40
2022-11-13T10:01:38.316Z,91.50
2022-11-13T10:04:15.295Z,91.70
2022-11-13T10:07:01.439Z,91.80
2022-11-13T10:10:17.968Z,91.80
2022-11-13T10:12:53.213Z,91.90
2022-11-13T10:15:22.605Z,92.00
2022-11-13T10:18:18.562Z,92.10
2022-11-13T10:21:17.877Z,92.20
2022-11-13T10:23:58.215Z,92.30
2022-11-13T10:26:30.653Z,92.50
2022-11-13T10:29:15.769Z,92.60
2022-11-13T10:31:52.140Z,92.60
2022-11-13T10:34:22.066Z,92.80
2022-11-13T10:37:19.547Z,92.90
2022-11-13T10:39:49.003Z,93.00
2022-11-13T10:42:30.610Z,93.20
2022-11-13T10:45:04.371Z,93.40
2022-11-13T10:48:02.694Z,93.50
2022-11-13T10:50:31.812Z,93.90
2022-11-13T10:53:01.473Z,94.10
2022-11-13T10:55:39.142Z,94.30
2022-11-13T10:58:20.723Z,95.30
2022-11-13T11:00:50.785Z,95.80
2022-11-13T11:03:26.748Z,96.70
2022-11-13T11:06:03.152Z,96.50
2022-11-13T11:08:36.418Z,96.20
2022-11-13T11:11:35.294Z,96.50
2022-11-13T11:14:13.630Z,96.50
2022-11-13T11:16:43.807Z,96.60
2022-11-13T11:19:16.793Z,96.70
2022-11-13T11:21:48.336Z,97.10
2022-11-13T11:24:29.495Z,97.30
2022-11-13T11:27:27.645Z,97.40
2022-11-13T11:30:08.545Z,97.40
2022-11-13T11:32:52.731Z,97.70
2022-11-13T11:35:34.808Z,97.90
2022-11-13T11:38:23.871Z,98.10
2022-11-13T11:41:04.349Z,98.00
2022-11-13T11:44:03.954Z,98.20
2022-11-13T11:46:33.275Z,98.20
2022-11-13T11:49:04.142Z,98.40
2022-11-13T11:51:55.251Z,98.50
2022-11-13T11:54:47.569Z,98.60
2022-11-13T11:58:19.659Z,98.30
2022-11-13T12:01:38.615Z,98.40
2022-11-13T12:04:46.066Z,98.50
2022-11-13T12:07:48.071Z,98.60
2022-11-13T12:10:30.180Z,98.60
2022-11-13T12:13:21.620Z,98.80
2022-11-13T12:16:25.059Z,98.80
2022-11-13T12:19:05.309Z,98.70
2022-11-13T12:21:55.147Z,99.10
2022-11-13T12:24:38.558Z,99.20
2022-11-13T12:27:33.152Z,99.20
2022-11-13T12:30:18.369Z,99.10
2022-11-13T12:33:17.125Z,99.10
2022-11-13T12:35:52.516Z,99.30
2022-11-13T12:38:38.755Z,99.50
2022-11-13T12:41:29.619Z,99.30
2022-11-13T12:44:30.428Z,99.50
2022-11-13T12:47:03.019Z,99.50
2022-11-13T12:49:36.430Z,99.60
2022-11-13T12:52:25.408Z,99.70
2022-11-13T12:55:30.441Z,99.70
2022-11-13T12:58:23.398Z,99.70
2022-11-13T13:01:22.096Z,99.70
2022-11-13T13:04:21.592Z,99.80
2022-11-13T13:07:12.106Z,99.80
2022-11-13T13:10:24.312Z,99.90
2022-11-13T13:13:40.921Z,99.90
2022-11-13T13:16:11.840Z,99.90
2022-11-13T13:18:42.178Z,99.90
2022-11-13T13:21:18.614Z,99.90
2022-11-13T13:23:54.419Z,99.90
2022-11-13T13:26:31.663Z,99.90
2022-11-13T13:29:27.488Z,99.90
2022-11-13T13:32:00.784Z,99.90
2022-11-13T13:35:23.005Z,99.90
2022-11-13T13:38:33.600Z,99.90
2022-11-13T13:41:36.640Z,99.90
2022-11-13T13:44:39.258Z,99.90
2022-11-13T13:47:25.596Z,99.90
2022-11-13T13:49:56.280Z,99.90
2022-11-13T13:52:34.547Z,99.90
2022-11-13T13:55:08.572Z,99.90
2022-11-13T13:57:43.600Z,99.90
2022-11-13T14:00:15.600Z,99.90
2022-11-13T14:02:53.211Z,99.90
2022-11-13T14:05:39.171Z,99.90
2022-11-13T14:08:24.427Z,99.90
2022-11-13T14:10:54.385Z,99.90
2022-11-13T14:13:30.372Z,99.90
2022-11-13T14:16:06.352Z,99.90
2022-11-13T14:18:37.399Z,99.90
2022-11-13T14:21:26.021Z,99.90
2022-11-13T14:23:58.495Z,99.90
2022-11-13T14:26:27.746Z,99.90
2022-11-13T14:29:09.936Z,99.90
2022-11-13T14:31:39.184Z,99.90
2022-11-13T14:34:19.519Z,99.90
2022-11-13T14:36:50.084Z,99.90
2022-11-13T14:39:36.011Z,99.90
2022-11-13T14:42:05.549Z,99.90
2022-11-13T14:44:36.758Z,99.90
2022-11-13T14:47:23.702Z,99.90
2022-11-13T14:49:52.920Z,99.90
2022-11-13T14:52:30.399Z,99.90
2022-11-13T14:55:15.178Z,99.90
2022-11-13T14:57:51.745Z,99.90
2022-11-13T15:00:30.377Z,99.90
2022-11-13T15:03:01.043Z,99.90
2022-11-13T15:05:30.572Z,99.90
2022-11-13T15:08:00.966Z,99.90
2022-11-13T15:10:32.797Z,99.90
2022-11-13T15:13:02.176Z,99.90
2022-11-13T15:15:31.910Z,99.90
2022-11-13T15:18:03.476Z,99.90
2022-11-13T15:20:33.260Z,99.90
2022-11-13T15:23:03.065Z,99.90
2022-11-13T15:25:32.209Z,99.90
2022-11-13T15:28:01.415Z,99.90
2022-11-13T15:30:30.543Z,99.90
2022-11-13T15:33:00.346Z,99.90
2022-11-13T15:35:29.571Z,99.90
2022-11-13T15:37:59.602Z,99.90
2022-11-13T15:40:28.628Z,99.90
2022-11-13T15:42:59.971Z,99.90
2022-11-13T15:45:29.247Z,99.90
2022-11-13T15:47:58.324Z,99.90
2022-11-13T15:50:27.485Z,99.90
2022-11-13T15:53:00.988Z,99.90
2022-11-13T15:55:34.540Z,99.90
2022-11-13T15:58:04.691Z,99.90
2022-11-13T16:00:34.678Z,99.90
2022-11-13T16:03:05.591Z,99.90
2022-11-13T16:05:36.764Z,99.90
2022-11-13T16:08:17.133Z,99.90
2022-11-13T16:10:46.228Z,99.90
2022-11-13T16:13:15.284Z,99.90
2022-11-13T16:15:44.601Z,99.90
2022-11-13T16:18:27.631Z,99.90
2022-11-13T16:20:56.989Z,99.90
2022-11-13T16:23:27.060Z,99.90
2022-11-13T16:25:56.548Z,99.90
2022-11-13T16:28:26.839Z,99.90
2022-11-13T16:30:56.320Z,99.90
2022-11-13T16:33:25.431Z,99.90
2022-11-13T16:35:55.944Z,99.90
2022-11-13T16:38:25.013Z,99.90
2022-11-13T16:40:54.062Z,99.90
2022-11-13T16:43:23.165Z,99.90
2022-11-13T16:45:54.285Z,99.90
2022-11-13T16:48:23.345Z,99.90
2022-11-13T16:50:52.405Z,99.90
2022-11-13T16:53:22.724Z,99.90
2022-11-13T16:55:51.730Z,99.90
2022-11-13T16:58:20.948Z,99.90
2022-11-13T17:00:49.967Z,99.90
2022-11-13T17:03:19.020Z,99.90
2022-11-13T17:05:52.256Z,99.90
2022-11-13T17:08:22.883Z,99.90
2022-11-13T17:11:01.275Z,99.90
2022-11-13T17:13:30.268Z,99.90
2022-11-13T17:16:03.050Z,99.90
2022-11-13T17:18:32.150Z,99.90
2022-11-13T17:21:02.078Z,99.90
2022-11-13T17:23:31.353Z,99.90
2022-11-13T17:26:00.645Z,99.90
2022-11-13T17:28:30.034Z,99.90
2022-11-13T17:31:12.972Z,99.90
2022-11-13T17:33:43.638Z,99.90
2022-11-13T17:36:13.080Z,99.90
2022-11-13T17:38:42.281Z,99.90
2022-11-13T17:41:14.504Z,99.90
2022-11-13T17:43:44.293Z,99.90
2022-11-13T17:46:17.703Z,99.90
2022-11-13T17:48:48.987Z,99.90
2022-11-13T17:51:19.167Z,99.90
2022-11-13T17:53:48.275Z,99.90
2022-11-13T17:56:17.344Z,99.90
2022-11-13T17:58:47.662Z,99.90
2022-11-13T18:01:22.616Z,99.90
2022-11-13T18:03:57.785Z,99.90
2022-11-13T18:06:27.512Z,99.90
2022-11-13T18:08:56.741Z,99.90
2022-11-13T18:11:31.483Z,99.90
2022-11-13T18:14:00.622Z,99.90
2022-11-13T18:16:38.387Z,99.90
2022-11-13T18:19:10.203Z,99.90
2022-11-13T18:21:40.743Z,99.90
2022-11-13T18:24:18.416Z,99.90
2022-11-13T18:26:48.068Z,99.90
2022-11-13T18:29:17.206Z,99.90
2022-11-13T18:31:46.503Z,99.90
2022-11-13T18:34:18.351Z,99.90
2022-11-13T18:36:48.288Z,99.90
2022-11-13T18:39:17.539Z,99.90
2022-11-13T18:41:46.683Z,99.90
2022-11-13T18:44:15.915Z,99.90
2022-11-13T18:46:45.202Z,99.90
2022-11-13T18:49:14.333Z,99.90
2022-11-13T18:51:44.831Z,99.90
2022-11-13T18:54:14.162Z,99.90
2022-11-13T18:56:43.879Z,99.90
2022-11-13T18:59:13.085Z,99.90
2022-11-13T19:01:43.135Z,99.90
2022-11-13T19:04:28.159Z,99.90
2022-11-13T19:06:58.268Z,99.90
2022-11-13T19:09:27.702Z,99.90
2022-11-13T19:11:56.909Z,99.90
2022-11-13T19:14:26.037Z,99.90
2022-11-13T19:16:55.162Z,99.90
2022-11-13T19:19:25.409Z,99.90
2022-11-13T19:21:54.607Z,99.90
2022-11-13T19:24:23.797Z,99.90
2022-11-13T19:26:53.021Z,99.90
2022-11-13T19:29:22.267Z,99.90
2022-11-13T19:31:54.602Z,99.90
2022-11-13T19:34:23.780Z,99.90
2022-11-13T19:36:55.368Z,99.90
2022-11-13T19:39:24.811Z,99.90
2022-11-13T19:41:54.020Z,99.90
2022-11-13T19:44:23.290Z,99.90
2022-11-13T19:46:52.493Z,99.90
2022-11-13T19:49:21.714Z,99.90
2022-11-13T19:51:51.030Z,99.90
2022-11-13T19:54:20.235Z,99.90
2022-11-13T19:56:49.520Z,99.90
2022-11-13T19:59:18.722Z,99.90
2022-11-13T20:01:47.940Z,99.90
2022-11-13T20:04:17.132Z,99.90
2022-11-13T20:06:46.324Z,99.90
2022-11-13T20:09:15.503Z,99.90
2022-11-13T20:11:46.079Z,99.90
2022-11-13T20:14:15.546Z,99.90
2022-11-13T20:16:44.694Z,99.90
2022-11-13T20:19:13.815Z,99.90
2022-11-13T20:21:43.013Z,99.90
2022-11-13T20:24:12.495Z,99.90
2022-11-13T20:26:41.617Z,99.90
2022-11-13T20:29:10.765Z,99.90
2022-11-13T20:31:39.917Z,99.90
2022-11-13T20:34:09.988Z,99.90
2022-11-13T20:36:40.028Z,99.90
2022-11-13T20:39:10.579Z,99.90
2022-11-13T20:41:39.813Z,99.90
2022-11-13T20:44:09.046Z,99.90
2022-11-13T20:46:38.280Z,99.90
2022-11-13T20:49:07.459Z,99.90
2022-11-13T20:51:36.696Z,99.90
2022-11-13T20:54:06.034Z,99.90
2022-11-13T20:56:35.201Z,99.90
2022-11-13T20:59:05.047Z,99.90
2022-11-13T21:01:37.527Z,99.90
2022-11-13T21:04:06.879Z,99.90
2022-11-13T21:06:36.053Z,99.90
2022-11-13T21:09:06.561Z,99.90
2022-11-13T21:11:35.808Z,99.90
2022-11-13T21:14:05.115Z,99.90
2022-11-13T21:16:34.320Z,99.90
2022-11-13T21:19:03.515Z,99.90
2022-11-13T21:21:32.780Z,99.90
2022-11-13T21:24:02.002Z,99.90
2022-11-13T21:26:31.201Z,99.90
2022-11-13T21:29:03.945Z,99.90
2022-11-13T21:31:33.096Z,99.90
2022-11-13T21:34:02.264Z,99.90
2022-11-13T21:36:31.578Z,99.90
2022-11-13T21:39:01.206Z,99.90
2022-11-13T21:41:30.268Z,99.90
2022-11-13T21:44:05.906Z,99.90
2022-11-13T21:46:40.173Z,99.90
2022-11-13T21:49:13.203Z,99.90
2022-11-13T21:51:44.372Z,99.90
2022-11-13T21:54:13.523Z,99.90
2022-11-13T21:56:43.147Z,99.90
2022-11-13T21:59:12.265Z,99.90
2022-11-13T22:01:41.395Z,99.90
2022-11-13T22:04:10.471Z,99.90
2022-11-13T22:06:42.452Z,99.90
2022-11-13T22:09:19.050Z,99.90
2022-11-13T22:11:48.310Z,99.90
2022-11-13T22:14:17.501Z,99.90
2022-11-13T22:16:49.061Z,99.90
2022-11-13T22:19:26.528Z,99.90
2022-11-13T22:21:56.908Z,99.90
2022-11-13T22:24:26.013Z,99.90
2022-11-13T22:26:55.054Z,99.90
2022-11-13T22:29:24.135Z,99.90
2022-11-13T22:31:53.170Z,99.90
2022-11-13T22:34:22.311Z,99.90
2022-11-13T22:36:51.763Z,99.90
2022-11-13T22:39:20.925Z,99.90
2022-11-13T22:41:49.944Z,99.90
2022-11-13T22:44:18.993Z,99.90
2022-11-13T22:46:48.170Z,99.90
2022-11-13T22:49:17.264Z,99.90
2022-11-13T22:51:46.336Z,99.90
2022-11-13T22:54:15.430Z,99.90
2022-11-13T22:56:44.583Z,99.90
2022-11-13T22:59:14.952Z,99.90
2022-11-13T23:01:44.665Z,99.90
2022-11-13T23:04:15.458Z,99.90
2022-11-13T23:06:44.645Z,99.90
2022-11-13T23:09:13.780Z,99.90
2022-11-13T23:11:44.912Z,99.90
2022-11-13T23:14:18.422Z,99.90
2022-11-13T23:16:47.553Z,99.90
2022-11-13T23:19:16.583Z,99.90
2022-11-13T23:21:48.156Z,99.90
2022-11-13T23:24:17.176Z,99.90
2022-11-13T23:26:46.299Z,99.90
2022-11-13T23:29:15.653Z,99.90
2022-11-13T23:31:44.698Z,99.90
2022-11-13T23:34:16.602Z,99.90
2022-11-13T23:36:56.181Z,99.90
2022-11-13T23:39:25.210Z,99.90
2022-11-13T23:41:54.239Z,99.90
2022-11-13T23:44:23.295Z,99.90
2022-11-13T23:46:52.357Z,99.90
2022-11-13T23:49:21.443Z,99.90
2022-11-13T23:51:50.561Z,99.90
2022-11-13T23:54:19.625Z,99.90
2022-11-13T23:56:48.658Z,99.90
2022-11-13T23:59:17.805Z,99.90
